createdAt,value
2022-09-28T00:02:57.667Z,8.51
2022-09-28T00:06:05.773Z,8.52
2022-09-28T00:09:08.074Z,8.42
2022-09-28T00:12:10.372Z,8.46
2022-09-28T00:15:12.559Z,8.49
2022-09-28T00:18:14.734Z,8.67
2022-09-28T00:21:19.542Z,8.63
2022-09-28T00:24:26.686Z,8.64
2022-09-28T00:27:30.098Z,8.57
2022-09-28T00:30:32.235Z,8.11
2022-09-28T00:33:34.441Z,8.01
2022-09-28T00:36:36.762Z,8.17
2022-09-28T00:39:41.350Z,8.04
2022-09-28T00:42:45.091Z,7.99
2022-09-28T00:45:56.663Z,7.97
2022-09-28T00:49:07.548Z,8.03
2022-09-28T00:52:13.167Z,7.96
2022-09-28T00:55:18.232Z,7.93
2022-09-28T00:58:28.285Z,7.86
2022-09-28T01:01:30.716Z,8.03
2022-09-28T01:04:32.889Z,7.99
2022-09-28T01:07:35.527Z,8.02
2022-09-28T01:10:39.724Z,7.90
2022-09-28T01:13:42.221Z,7.85
2022-09-28T01:16:52.226Z,7.89
2022-09-28T01:20:13.275Z,7.85
2022-09-28T01:23:39.868Z,7.91
2022-09-28T01:26:52.161Z,7.93
2022-09-28T01:30:07.659Z,8.00
2022-09-28T01:33:14.709Z,7.97
2022-09-28T01:36:24.196Z,8.07
2022-09-28T01:39:30.953Z,8.18
2022-09-28T01:42:34.618Z,8.25
2022-09-28T01:45:55.212Z,8.35
2022-09-28T01:48:58.710Z,8.14
2022-09-28T01:52:20.527Z,8.29
2022-09-28T01:55:34.536Z,8.28
2022-09-28T01:58:45.368Z,8.49
2022-09-28T02:02:07.803Z,8.50
2022-09-28T02:05:23.605Z,8.64
2022-09-28T02:08:29.319Z,8.62
2022-09-28T02:11:33.363Z,8.82
2022-09-28T02:14:38.324Z,8.79
2022-09-28T02:17:41.077Z,8.57
2022-09-28T02:20:48.706Z,8.42
2022-09-28T02:24:03.855Z,8.47
2022-09-28T02:27:13.861Z,8.56
2022-09-28T02:30:17.934Z,8.64
2022-09-28T02:33:32.113Z,8.62
2022-09-28T02:36:34.460Z,8.53
2022-09-28T02:39:36.583Z,8.67
2022-09-28T02:42:52.937Z,8.90
2022-09-28T02:46:16.947Z,8.78
2022-09-28T02:49:27.776Z,8.64
2022-09-28T02:52:49.423Z,8.72
2022-09-28T02:55:59.196Z,8.76
2022-09-28T02:59:40.254Z,8.75
2022-09-28T03:02:54.456Z,8.41
2022-09-28T03:06:22.658Z,8.40
2022-09-28T03:09:34.392Z,8.42
2022-09-28T03:12:37.474Z,8.34
2022-09-28T03:15:40.706Z,8.31
2022-09-28T03:18:44.228Z,7.97
2022-09-28T03:21:46.425Z,8.00
2022-09-28T03:24:48.626Z,8.13
2022-09-28T03:27:50.851Z,8.13
2022-09-28T03:30:53.099Z,8.09
2022-09-28T03:33:55.852Z,8.13
2022-09-28T03:36:58.068Z,8.15
2022-09-28T03:40:00.394Z,8.07
2022-09-28T03:43:02.628Z,8.07
2022-09-28T03:46:04.970Z,8.24
2022-09-28T03:49:07.315Z,8.29
2022-09-28T03:52:10.053Z,8.12
2022-09-28T03:55:12.477Z,7.96
2022-09-28T03:58:17.642Z,7.92
2022-09-28T04:01:19.860Z,7.90
2022-09-28T04:04:22.196Z,7.97
2022-09-28T04:07:26.940Z,7.96
2022-09-28T04:10:32.474Z,7.96
2022-09-28T04:13:34.751Z,7.98
2022-09-28T04:16:36.950Z,7.73
2022-09-28T04:19:39.357Z,7.81
2022-09-28T04:22:41.832Z,7.99
2022-09-28T04:25:47.836Z,8.09
2022-09-28T04:29:08.976Z,7.86
2022-09-28T04:32:11.988Z,7.89
2022-09-28T04:35:14.450Z,7.75
2022-09-28T04:38:23.476Z,7.73
2022-09-28T04:41:33.310Z,7.84
2022-09-28T04:44:35.461Z,7.65
2022-09-28T04:47:37.663Z,7.76
2022-09-28T04:50:39.821Z,7.76
2022-09-28T04:53:41.994Z,7.87
2022-09-28T04:56:44.221Z,7.84
2022-09-28T04:59:46.380Z,7.72
2022-09-28T05:02:48.526Z,7.77
2022-09-28T05:05:50.769Z,7.70
2022-09-28T05:08:53.959Z,7.61
2022-09-28T05:11:56.127Z,7.60
2022-09-28T05:14:58.346Z,7.62
2022-09-28T05:18:00.515Z,7.75
2022-09-28T05:21:02.764Z,7.44
2022-09-28T05:24:07.569Z,7.43
2022-09-28T05:27:09.975Z,7.47
2022-09-28T05:30:12.661Z,7.49
2022-09-28T05:33:14.818Z,7.49
2022-09-28T05:36:16.944Z,7.65
2022-09-28T05:39:19.096Z,7.43
2022-09-28T05:42:21.216Z,7.50
2022-09-28T05:45:23.355Z,7.87
2022-09-28T05:48:25.758Z,8.21
2022-09-28T05:51:27.920Z,8.15
2022-09-28T05:54:30.089Z,8.48
2022-09-28T05:57:32.219Z,8.83
2022-09-28T06:00:35.659Z,8.64
2022-09-28T06:03:37.839Z,9.06
2022-09-28T06:06:40.316Z,9.28
2022-09-28T06:09:42.518Z,9.46
2022-09-28T06:12:45.603Z,9.82
2022-09-28T06:15:47.792Z,9.86
2022-09-28T06:18:49.952Z,10.40
2022-09-28T06:21:52.085Z,10.28
2022-09-28T06:24:54.232Z,10.57
2022-09-28T06:28:06.644Z,10.87
2022-09-28T06:31:08.960Z,10.95
2022-09-28T06:34:12.472Z,11.14
2022-09-28T06:37:14.689Z,10.93
2022-09-28T06:40:17.543Z,11.00
2022-09-28T06:43:19.681Z,11.57
2022-09-28T06:46:22.186Z,12.40
2022-09-28T06:49:25.768Z,12.68
2022-09-28T06:52:28.023Z,12.87
2022-09-28T06:55:30.629Z,12.79
2022-09-28T06:58:32.790Z,12.93
2022-09-28T07:01:34.997Z,13.03
2022-09-28T07:04:37.270Z,12.97
2022-09-28T07:07:40.611Z,13.06
2022-09-28T07:10:47.506Z,13.19
2022-09-28T07:13:51.380Z,13.05
2022-09-28T07:17:12.628Z,13.30
2022-09-28T07:20:19.476Z,13.34
2022-09-28T07:23:21.992Z,13.43
2022-09-28T07:26:24.847Z,13.40
2022-09-28T07:29:27.095Z,13.61
2022-09-28T07:35:36.415Z,13.70
2022-09-28T07:38:38.576Z,13.72
2022-09-28T07:41:41.469Z,13.59
2022-09-28T07:44:43.615Z,13.57
2022-09-28T07:47:45.914Z,13.57
2022-09-28T07:50:56.708Z,13.87
2022-09-28T07:53:59.231Z,14.10
2022-09-28T07:57:01.351Z,14.13
2022-09-28T08:00:07.080Z,14.25
2022-09-28T08:03:09.272Z,14.17
2022-09-28T08:06:12.849Z,14.39
2022-09-28T08:09:15.215Z,14.46
2022-09-28T08:12:19.716Z,14.32
2022-09-28T08:15:22.579Z,14.32
2022-09-28T08:18:24.741Z,14.46
2022-09-28T08:21:45.234Z,14.43
2022-09-28T08:24:47.859Z,14.48
2022-09-28T08:27:49.993Z,14.62
2022-09-28T08:30:52.631Z,15.01
2022-09-28T08:33:55.332Z,14.64
2022-09-28T08:36:57.500Z,14.93
2022-09-28T08:39:59.789Z,15.10
2022-09-28T08:43:06.548Z,15.30
2022-09-28T08:46:09.707Z,15.34
2022-09-28T08:49:30.104Z,15.44
2022-09-28T08:52:38.341Z,15.55
2022-09-28T08:55:40.547Z,15.62
2022-09-28T08:58:44.946Z,15.67
2022-09-28T09:01:57.733Z,15.57
2022-09-28T09:05:06.223Z,15.82
2022-09-28T09:08:20.233Z,15.80
2022-09-28T09:11:40.632Z,15.94
2022-09-28T09:14:51.854Z,15.94
2022-09-28T09:18:03.496Z,15.85
2022-09-28T09:21:16.758Z,15.58
2022-09-28T09:24:27.403Z,15.56
2022-09-28T09:27:38.037Z,15.94
2022-09-28T09:31:00.592Z,16.09
2022-09-28T09:34:18.378Z,16.22
2022-09-28T09:37:20.569Z,16.31
2022-09-28T09:40:42.000Z,16.08
2022-09-28T09:43:49.984Z,16.12
2022-09-28T09:47:02.035Z,16.15
2022-09-28T09:50:45.290Z,16.05
2022-09-28T09:54:21.334Z,16.33
2022-09-28T09:57:30.049Z,16.45
2022-09-28T10:00:33.501Z,16.51
2022-09-28T10:03:40.536Z,16.30
2022-09-28T10:06:43.752Z,16.12
2022-09-28T10:09:46.579Z,16.11
2022-09-28T10:12:50.046Z,16.25
2022-09-28T10:15:52.940Z,16.38
2022-09-28T10:18:55.074Z,16.61
2022-09-28T10:21:59.972Z,16.44
2022-09-28T10:25:02.348Z,16.36
2022-09-28T10:28:10.252Z,16.32
2022-09-28T10:31:43.568Z,16.03
2022-09-28T10:34:50.209Z,16.42
2022-09-28T10:38:06.862Z,16.48
2022-09-28T10:41:10.502Z,16.61
2022-09-28T10:44:17.811Z,16.71
2022-09-28T10:47:22.465Z,16.74
2022-09-28T10:50:26.846Z,16.55
2022-09-28T10:53:29.005Z,16.60
2022-09-28T10:56:37.113Z,16.38
2022-09-28T10:59:41.243Z,16.46
2022-09-28T11:02:43.490Z,16.61
2022-09-28T11:06:19.703Z,16.50
2022-09-28T11:09:33.597Z,16.73
2022-09-28T11:12:42.107Z,16.82
2022-09-28T11:15:44.478Z,17.05
2022-09-28T11:18:46.742Z,16.96
2022-09-28T11:21:48.884Z,16.89
2022-09-28T11:24:51.032Z,16.81
2022-09-28T11:27:53.138Z,16.52
2022-09-28T11:30:55.618Z,16.31
2022-09-28T11:34:12.804Z,16.35
2022-09-28T11:37:42.938Z,16.75
2022-09-28T11:41:03.911Z,16.69
2022-09-28T11:44:18.378Z,16.58
2022-09-28T11:47:35.755Z,16.62
2022-09-28T11:50:46.764Z,17.00
2022-09-28T11:54:14.534Z,17.06
2022-09-28T11:57:24.001Z,16.69
2022-09-28T12:00:26.572Z,16.71
2022-09-28T12:03:48.666Z,16.55
2022-09-28T12:06:54.053Z,16.62
2022-09-28T12:10:28.654Z,16.90
2022-09-28T12:13:34.292Z,17.18
2022-09-28T12:20:16.765Z,17.29
2022-09-28T12:23:33.893Z,17.24
2022-09-28T12:26:55.260Z,17.11
2022-09-28T12:29:59.109Z,17.07
2022-09-28T12:33:09.287Z,17.11
2022-09-28T12:36:42.628Z,17.11
2022-09-28T12:40:03.431Z,16.99
2022-09-28T12:43:05.680Z,17.06
2022-09-28T12:46:16.775Z,17.26
2022-09-28T12:53:16.599Z,17.23
2022-09-28T12:56:28.224Z,17.06
2022-09-28T12:59:53.569Z,16.99
2022-09-28T13:03:37.851Z,17.00
2022-09-28T13:07:00.220Z,17.04
2022-09-28T13:10:17.578Z,16.98
2022-09-28T13:13:39.110Z,16.87
2022-09-28T13:17:00.415Z,16.92
2022-09-28T13:20:21.173Z,16.67
2022-09-28T13:23:39.768Z,16.66
2022-09-28T13:26:44.824Z,16.82
2022-09-28T13:29:49.200Z,16.82
2022-09-28T13:32:51.811Z,16.44
2022-09-28T13:35:54.018Z,16.33
2022-09-28T13:39:00.359Z,16.20
2022-09-28T13:42:02.730Z,15.89
2022-09-28T13:45:23.662Z,15.94
2022-09-28T13:48:48.560Z,15.90
2022-09-28T13:51:55.376Z,16.10
2022-09-28T13:55:24.957Z,16.16
2022-09-28T13:58:36.929Z,16.31
2022-09-28T14:01:41.710Z,16.32
2022-09-28T14:04:59.100Z,16.52
2022-09-28T14:08:27.383Z,16.33
2022-09-28T14:11:34.253Z,16.21
2022-09-28T14:14:49.892Z,16.27
2022-09-28T14:18:08.437Z,16.10
2022-09-28T14:21:31.776Z,15.89
2022-09-28T14:24:33.865Z,15.73
2022-09-28T14:27:55.442Z,15.68
2022-09-28T14:30:58.911Z,15.65
2022-09-28T14:34:02.649Z,15.53
2022-09-28T14:37:35.063Z,15.39
2022-09-28T14:41:15.305Z,15.17
2022-09-28T14:44:17.960Z,15.24
2022-09-28T14:48:10.689Z,15.18
2022-09-28T14:51:24.617Z,15.18
2022-09-28T14:54:27.644Z,15.21
2022-09-28T14:57:31.452Z,15.30
2022-09-28T15:00:34.094Z,15.27
2022-09-28T15:03:38.329Z,15.22
2022-09-28T15:06:48.201Z,15.27
2022-09-28T15:09:52.630Z,15.22
2022-09-28T15:12:57.173Z,15.12
2022-09-28T15:16:08.914Z,15.24
2022-09-28T15:19:50.167Z,15.25
2022-09-28T15:22:57.314Z,15.19
2022-09-28T15:25:59.577Z,15.20
2022-09-28T15:29:04.645Z,15.21
2022-09-28T15:32:10.090Z,15.27
2022-09-28T15:35:17.276Z,15.27
2022-09-28T15:38:19.548Z,15.33
2022-09-28T15:41:24.993Z,15.21
2022-09-28T15:44:35.229Z,15.17
2022-09-28T15:47:40.047Z,15.17
2022-09-28T15:50:57.510Z,15.27
2022-09-28T15:54:19.544Z,15.27
2022-09-28T15:57:39.130Z,15.35
2022-09-28T16:00:42.408Z,15.47
2022-09-28T16:03:44.553Z,15.30
2022-09-28T16:07:24.558Z,15.13
2022-09-28T16:10:33.529Z,14.84
2022-09-28T16:13:36.992Z,14.83
2022-09-28T16:16:50.336Z,14.64
2022-09-28T16:19:52.528Z,14.70
2022-09-28T16:22:56.937Z,14.67
2022-09-28T16:26:08.820Z,14.63
2022-09-28T16:29:40.869Z,14.51
2022-09-28T16:33:06.718Z,14.51
2022-09-28T16:36:13.375Z,14.50
2022-09-28T16:39:17.077Z,14.49
2022-09-28T16:42:19.358Z,14.37
2022-09-28T16:45:23.827Z,14.41
2022-09-28T16:48:27.022Z,14.47
2022-09-28T16:51:29.471Z,14.45
2022-09-28T16:54:50.252Z,14.56
2022-09-28T16:57:52.421Z,14.51
2022-09-28T17:00:55.570Z,14.48
2022-09-28T17:03:57.789Z,14.50
2022-09-28T17:06:59.990Z,14.53
2022-09-28T17:10:02.206Z,14.61
2022-09-28T17:13:04.472Z,14.45
2022-09-28T17:16:14.474Z,14.50
2022-09-28T17:19:22.801Z,14.55
2022-09-28T17:22:24.966Z,14.45
2022-09-28T17:25:27.322Z,14.37
2022-09-28T17:28:34.254Z,14.33
2022-09-28T17:31:36.402Z,14.38
2022-09-28T17:34:38.559Z,14.38
2022-09-28T17:37:41.184Z,14.43
2022-09-28T17:40:45.469Z,14.38
2022-09-28T17:43:47.869Z,14.40
2022-09-28T17:46:51.067Z,14.34
2022-09-28T17:49:53.796Z,14.27
2022-09-28T17:52:58.029Z,14.18
2022-09-28T17:56:00.362Z,14.10
2022-09-28T17:59:05.594Z,14.01
2022-09-28T18:02:11.224Z,13.84
2022-09-28T18:05:16.771Z,13.76
2022-09-28T18:08:20.434Z,13.53
2022-09-28T18:11:22.807Z,13.42
2022-09-28T18:14:24.987Z,13.33
2022-09-28T18:17:27.166Z,13.09
2022-09-28T18:20:29.762Z,12.94
2022-09-28T18:23:32.018Z,12.90
2022-09-28T18:26:34.186Z,12.67
2022-09-28T18:29:36.376Z,12.75
2022-09-28T18:32:38.634Z,12.61
2022-09-28T18:35:41.166Z,12.46
2022-09-28T18:38:43.362Z,12.35
2022-09-28T18:41:45.525Z,12.36
2022-09-28T18:44:47.756Z,12.39
2022-09-28T18:47:49.972Z,12.34
2022-09-28T18:50:52.106Z,12.26
2022-09-28T18:53:54.315Z,12.35
2022-09-28T18:56:57.241Z,12.28
2022-09-28T19:00:05.262Z,12.18
2022-09-28T19:03:08.163Z,12.19
2022-09-28T19:06:15.550Z,12.22
2022-09-28T19:09:22.593Z,12.18
2022-09-28T19:12:24.759Z,12.22
2022-09-28T19:15:27.055Z,12.28
2022-09-28T19:18:32.359Z,12.23
2022-09-28T19:21:35.385Z,12.26
2022-09-28T19:24:37.565Z,12.24
2022-09-28T19:27:39.806Z,12.06
2022-09-28T19:30:42.155Z,12.15
2022-09-28T19:33:48.156Z,12.05
2022-09-28T19:36:50.350Z,12.13
2022-09-28T19:39:52.617Z,12.19
2022-09-28T19:42:54.780Z,12.14
2022-09-28T19:46:06.236Z,12.07
2022-09-28T19:49:14.447Z,12.07
2022-09-28T19:52:17.280Z,12.09
2022-09-28T19:55:21.118Z,12.06
2022-09-28T19:58:24.953Z,12.08
2022-09-28T20:01:28.070Z,12.11
2022-09-28T20:04:30.464Z,12.04
2022-09-28T20:07:34.730Z,12.10
2022-09-28T20:10:36.896Z,12.15
2022-09-28T20:13:39.409Z,12.19
2022-09-28T20:16:41.632Z,12.17
2022-09-28T20:19:43.859Z,12.13
2022-09-28T20:22:46.067Z,12.08
2022-09-28T20:25:52.420Z,12.06
2022-09-28T20:28:55.023Z,12.20
2022-09-28T20:31:57.728Z,12.14
2022-09-28T20:34:59.870Z,12.07
2022-09-28T20:38:08.078Z,12.12
2022-09-28T20:41:14.379Z,12.12
2022-09-28T20:44:16.808Z,12.19
2022-09-28T20:47:19.160Z,12.22
2022-09-28T20:50:22.012Z,12.11
2022-09-28T20:53:24.411Z,12.18
2022-09-28T20:56:28.605Z,12.17
2022-09-28T20:59:31.194Z,12.31
2022-09-28T21:02:33.358Z,12.33
2022-09-28T21:05:36.137Z,12.36
2022-09-28T21:08:38.264Z,12.36
2022-09-28T21:11:41.694Z,12.38
2022-09-28T21:14:43.966Z,12.51
2022-09-28T21:17:46.087Z,12.49
2022-09-28T21:20:49.486Z,12.51
2022-09-28T21:23:55.455Z,12.53
2022-09-28T21:26:58.428Z,12.51
2022-09-28T21:30:01.011Z,12.61
2022-09-28T21:33:03.172Z,12.60
2022-09-28T21:36:07.270Z,12.60
2022-09-28T21:39:10.522Z,12.64
2022-09-28T21:42:12.876Z,12.68
2022-09-28T21:45:15.170Z,12.61
2022-09-28T21:48:17.819Z,12.62
2022-09-28T21:51:19.965Z,12.62
2022-09-28T21:54:22.294Z,12.66
2022-09-28T21:57:24.455Z,12.64
2022-09-28T22:00:26.654Z,12.66
2022-09-28T22:03:29.890Z,12.52
2022-09-28T22:06:32.012Z,12.53
2022-09-28T22:09:34.367Z,12.58
2022-09-28T22:12:36.751Z,12.54
2022-09-28T22:15:39.220Z,12.67
2022-09-28T22:18:41.943Z,12.71
2022-09-28T22:21:44.312Z,12.74
2022-09-28T22:24:46.487Z,12.67
2022-09-28T22:27:48.683Z,12.77
2022-09-28T22:30:50.883Z,12.80
2022-09-28T22:33:53.890Z,12.76
2022-09-28T22:36:56.600Z,12.73
2022-09-28T22:40:00.789Z,12.68
2022-09-28T22:43:02.954Z,12.68
2022-09-28T22:46:07.261Z,12.71
2022-09-28T22:49:10.296Z,12.76
2022-09-28T22:52:12.447Z,12.85
2022-09-28T22:55:14.645Z,12.92
2022-09-28T22:58:16.921Z,12.89
2022-09-28T23:01:24.965Z,12.97
2022-09-28T23:04:27.227Z,12.93
2022-09-28T23:07:29.381Z,13.00
2022-09-28T23:10:31.700Z,13.07
2022-09-28T23:13:35.094Z,13.13
2022-09-28T23:16:37.278Z,13.07
2022-09-28T23:19:39.489Z,13.03
2022-09-28T23:22:45.992Z,12.96
2022-09-28T23:25:48.229Z,12.88
2022-09-28T23:28:50.820Z,12.87
2022-09-28T23:31:52.948Z,12.76
2022-09-28T23:34:55.249Z,12.73
2022-09-28T23:37:57.374Z,12.76
2022-09-28T23:40:59.623Z,12.71
2022-09-28T23:44:02.032Z,12.80
2022-09-28T23:47:04.251Z,12.86
2022-09-28T23:50:06.904Z,12.82
2022-09-28T23:53:09.768Z,12.87
2022-09-28T23:56:12.643Z,12.90
2022-09-28T23:59:14.879Z,12.92
